sensor_id;sensor_type;location;lat;lon;timestamp;P1;durP1;ratioP1;P2;durP2;ratioP2
10116;SDS011;5098;48.792;9.012;2024-01-30T00:02:10;9.40;;;7.60;;
10116;SDS011;5098;48.792;9.012;2024-01-30T00:04:37;10.20;;;8.20;;
10116;SDS011;5098;48.792;9.012;2024-01-30T00:07:03;10.67;;;8.20;;
10116;SDS011;5098;48.792;9.012;2024-01-30T00:09:32;11.20;;;8.20;;
10116;SDS011;5098;48.792;9.012;2024-01-30T00:11:58;15.80;;;8.57;;
10116;SDS011;5098;48.792;9.012;2024-01-30T00:14:24;10.97;;;7.87;;
10116;SDS011;5098;48.792;9.012;2024-01-30T00:16:50;9.90;;;8.17;;
10116;SDS011;5098;48.792;9.012;2024-01-30T00:19:17;9.88;;;7.03;;
10116;SDS011;5098;48.792;9.012;2024-01-30T00:21:43;10.03;;;7.00;;
10116;SDS011;5098;48.792;9.012;2024-01-30T00:24:09;8.82;;;6.85;;
10116;SDS011;5098;48.792;9.012;2024-01-30T00:26:35;7.05;;;5.70;;
10116;SDS011;5098;48.792;9.012;2024-01-30T00:29:01;7.95;;;5.28;;
10116;SDS011;5098;48.792;9.012;2024-01-30T00:31:27;6.53;;;5.65;;
10116;SDS011;5098;48.792;9.012;2024-01-30T00:33:54;10.10;;;8.67;;
10116;SDS011;5098;48.792;9.012;2024-01-30T00:36:20;7.77;;;6.90;;
10116;SDS011;5098;48.792;9.012;2024-01-30T00:38:46;8.60;;;7.70;;
10116;SDS011;5098;48.792;9.012;2024-01-30T00:41:12;12.63;;;10.27;;
10116;SDS011;5098;48.792;9.012;2024-01-30T00:43:38;12.80;;;8.90;;
10116;SDS011;5098;48.792;9.012;2024-01-30T00:46:04;11.10;;;9.70;;
10116;SDS011;5098;48.792;9.012;2024-01-30T00:48:30;9.48;;;7.95;;
10116;SDS011;5098;48.792;9.012;2024-01-30T00:50:56;8.52;;;7.05;;
10116;SDS011;5098;48.792;9.012;2024-01-30T00:53:22;10.30;;;7.97;;
10116;SDS011;5098;48.792;9.012;2024-01-30T00:55:49;8.20;;;6.90;;
10116;SDS011;5098;48.792;9.012;2024-01-30T00:58:15;6.87;;;5.80;;
10116;SDS011;5098;48.792;9.012;2024-01-30T01:00:41;7.17;;;5.80;;
10116;SDS011;5098;48.792;9.012;2024-01-30T01:03:07;7.20;;;5.90;;
10116;SDS011;5098;48.792;9.012;2024-01-30T01:05:33;7.18;;;6.05;;
10116;SDS011;5098;48.792;9.012;2024-01-30T01:07:59;6.50;;;5.60;;
10116;SDS011;5098;48.792;9.012;2024-01-30T01:10:26;7.20;;;6.07;;
10116;SDS011;5098;48.792;9.012;2024-01-30T01:12:53;7.77;;;5.93;;
10116;SDS011;5098;48.792;9.012;2024-01-30T01:15:19;6.47;;;5.70;;
10116;SDS011;5098;48.792;9.012;2024-01-30T01:17:45;7.60;;;5.85;;
10116;SDS011;5098;48.792;9.012;2024-01-30T01:20:11;8.63;;;5.93;;
10116;SDS011;5098;48.792;9.012;2024-01-30T01:22:37;13.33;;;6.50;;
10116;SDS011;5098;48.792;9.012;2024-01-30T01:25:04;6.50;;;5.40;;
10116;SDS011;5098;48.792;9.012;2024-01-30T01:27:33;7.10;;;5.27;;
10116;SDS011;5098;48.792;9.012;2024-01-30T01:29:59;10.17;;;5.83;;
10116;SDS011;5098;48.792;9.012;2024-01-30T01:32:26;7.50;;;6.43;;
10116;SDS011;5098;48.792;9.012;2024-01-30T01:34:52;7.00;;;5.78;;
10116;SDS011;5098;48.792;9.012;2024-01-30T01:37:19;7.63;;;5.33;;
10116;SDS011;5098;48.792;9.012;2024-01-30T01:39:47;6.55;;;5.10;;
10116;SDS011;5098;48.792;9.012;2024-01-30T01:42:13;5.17;;;4.57;;
10116;SDS011;5098;48.792;9.012;2024-01-30T01:44:39;7.40;;;5.30;;
10116;SDS011;5098;48.792;9.012;2024-01-30T01:47:05;7.40;;;5.60;;
10116;SDS011;5098;48.792;9.012;2024-01-30T01:49:31;6.37;;;4.90;;
10116;SDS011;5098;48.792;9.012;2024-01-30T01:51:58;9.30;;;4.70;;
10116;SDS011;5098;48.792;9.012;2024-01-30T01:54:25;7.43;;;5.43;;
10116;SDS011;5098;48.792;9.012;2024-01-30T01:56:51;5.80;;;5.20;;
10116;SDS011;5098;48.792;9.012;2024-01-30T01:59:18;6.73;;;5.70;;
10116;SDS011;5098;48.792;9.012;2024-01-30T02:01:45;7.53;;;5.75;;
10116;SDS011;5098;48.792;9.012;2024-01-30T02:04:14;7.07;;;5.25;;
10116;SDS011;5098;48.792;9.012;2024-01-30T02:06:40;8.45;;;5.57;;
10116;SDS011;5098;48.792;9.012;2024-01-30T02:09:06;8.77;;;5.53;;
10116;SDS011;5098;48.792;9.012;2024-01-30T02:11:34;6.40;;;5.67;;
10116;SDS011;5098;48.792;9.012;2024-01-30T02:14:03;8.90;;;5.83;;
10116;SDS011;5098;48.792;9.012;2024-01-30T02:16:29;7.40;;;5.20;;
10116;SDS011;5098;48.792;9.012;2024-01-30T02:18:55;6.50;;;5.00;;
10116;SDS011;5098;48.792;9.012;2024-01-30T02:21:22;7.45;;;5.45;;
10116;SDS011;5098;48.792;9.012;2024-01-30T02:23:48;7.75;;;5.35;;
10116;SDS011;5098;48.792;9.012;2024-01-30T02:26:14;5.47;;;4.83;;
10116;SDS011;5098;48.792;9.012;2024-01-30T02:28:41;6.67;;;5.20;;
10116;SDS011;5098;48.792;9.012;2024-01-30T02:31:07;7.10;;;5.55;;
10116;SDS011;5098;48.792;9.012;2024-01-30T02:33:33;6.55;;;5.20;;
10116;SDS011;5098;48.792;9.012;2024-01-30T02:35:59;7.47;;;5.63;;
10116;SDS011;5098;48.792;9.012;2024-01-30T02:38:25;6.85;;;5.57;;
10116;SDS011;5098;48.792;9.012;2024-01-30T02:40:51;5.95;;;4.40;;
10116;SDS011;5098;48.792;9.012;2024-01-30T02:43:18;6.70;;;5.18;;
10116;SDS011;5098;48.792;9.012;2024-01-30T02:45:44;6.22;;;4.70;;
10116;SDS011;5098;48.792;9.012;2024-01-30T02:48:10;5.88;;;4.47;;
10116;SDS011;5098;48.792;9.012;2024-01-30T02:50:36;7.22;;;4.90;;
10116;SDS011;5098;48.792;9.012;2024-01-30T02:53:02;5.85;;;4.28;;
10116;SDS011;5098;48.792;9.012;2024-01-30T02:55:28;5.72;;;4.60;;
10116;SDS011;5098;48.792;9.012;2024-01-30T02:57:54;6.18;;;4.95;;
10116;SDS011;5098;48.792;9.012;2024-01-30T03:00:20;5.57;;;4.50;;
10116;SDS011;5098;48.792;9.012;2024-01-30T03:02:46;6.07;;;4.90;;
10116;SDS011;5098;48.792;9.012;2024-01-30T03:05:12;5.53;;;4.45;;
10116;SDS011;5098;48.792;9.012;2024-01-30T03:07:38;6.93;;;5.55;;
10116;SDS011;5098;48.792;9.012;2024-01-30T03:10:05;6.82;;;4.85;;
10116;SDS011;5098;48.792;9.012;2024-01-30T03:12:31;5.65;;;5.05;;
10116;SDS011;5098;48.792;9.012;2024-01-30T03:14:57;5.30;;;4.80;;
10116;SDS011;5098;48.792;9.012;2024-01-30T03:17:23;6.47;;;4.40;;
10116;SDS011;5098;48.792;9.012;2024-01-30T03:19:49;5.75;;;4.60;;
10116;SDS011;5098;48.792;9.012;2024-01-30T03:22:16;8.10;;;4.95;;
10116;SDS011;5098;48.792;9.012;2024-01-30T03:24:42;5.32;;;4.80;;
10116;SDS011;5098;48.792;9.012;2024-01-30T03:27:08;5.82;;;5.15;;
10116;SDS011;5098;48.792;9.012;2024-01-30T03:29:34;6.78;;;5.05;;
10116;SDS011;5098;48.792;9.012;2024-01-30T03:32:00;5.50;;;4.72;;
10116;SDS011;5098;48.792;9.012;2024-01-30T03:34:27;6.43;;;4.70;;
10116;SDS011;5098;48.792;9.012;2024-01-30T03:36:53;6.30;;;5.68;;
10116;SDS011;5098;48.792;9.012;2024-01-30T03:39:19;7.47;;;4.82;;
10116;SDS011;5098;48.792;9.012;2024-01-30T03:41:45;5.35;;;4.38;;
10116;SDS011;5098;48.792;9.012;2024-01-30T03:44:11;10.57;;;9.55;;
10116;SDS011;5098;48.792;9.012;2024-01-30T03:46:37;5.75;;;4.78;;
10116;SDS011;5098;48.792;9.012;2024-01-30T03:49:03;5.35;;;4.43;;
10116;SDS011;5098;48.792;9.012;2024-01-30T03:51:29;9.80;;;5.10;;
10116;SDS011;5098;48.792;9.012;2024-01-30T03:53:55;5.00;;;4.53;;
10116;SDS011;5098;48.792;9.012;2024-01-30T03:56:21;6.47;;;4.95;;
10116;SDS011;5098;48.792;9.012;2024-01-30T03:58:47;5.55;;;5.05;;
10116;SDS011;5098;48.792;9.012;2024-01-30T04:01:14;8.52;;;5.40;;
10116;SDS011;5098;48.792;9.012;2024-01-30T04:03:40;5.03;;;4.50;;
10116;SDS011;5098;48.792;9.012;2024-01-30T04:06:06;5.00;;;4.60;;
10116;SDS011;5098;48.792;9.012;2024-01-30T04:08:32;6.82;;;5.20;;
10116;SDS011;5098;48.792;9.012;2024-01-30T04:10:58;5.53;;;4.93;;
10116;SDS011;5098;48.792;9.012;2024-01-30T04:13:24;8.88;;;5.15;;
10116;SDS011;5098;48.792;9.012;2024-01-30T04:15:50;5.70;;;4.90;;
10116;SDS011;5098;48.792;9.012;2024-01-30T04:18:17;6.88;;;4.70;;
10116;SDS011;5098;48.792;9.012;2024-01-30T04:20:43;7.88;;;5.53;;
10116;SDS011;5098;48.792;9.012;2024-01-30T04:23:09;6.85;;;4.85;;
10116;SDS011;5098;48.792;9.012;2024-01-30T04:25:35;4.65;;;4.20;;
10116;SDS011;5098;48.792;9.012;2024-01-30T04:28:01;5.00;;;4.45;;
10116;SDS011;5098;48.792;9.012;2024-01-30T04:30:27;5.38;;;4.70;;
10116;SDS011;5098;48.792;9.012;2024-01-30T04:32:53;6.57;;;4.90;;
10116;SDS011;5098;48.792;9.012;2024-01-30T04:35:19;5.60;;;5.10;;
10116;SDS011;5098;48.792;9.012;2024-01-30T04:37:48;6.60;;;5.45;;
10116;SDS011;5098;48.792;9.012;2024-01-30T04:40:14;6.93;;;5.35;;
10116;SDS011;5098;48.792;9.012;2024-01-30T04:42:40;9.23;;;6.45;;
10116;SDS011;5098;48.792;9.012;2024-01-30T04:45:06;7.40;;;5.22;;
10116;SDS011;5098;48.792;9.012;2024-01-30T04:47:32;5.72;;;5.10;;
10116;SDS011;5098;48.792;9.012;2024-01-30T04:49:58;6.05;;;5.45;;
10116;SDS011;5098;48.792;9.012;2024-01-30T04:52:25;6.85;;;5.53;;
10116;SDS011;5098;48.792;9.012;2024-01-30T04:54:51;7.57;;;6.07;;
10116;SDS011;5098;48.792;9.012;2024-01-30T04:57:17;6.47;;;5.63;;
10116;SDS011;5098;48.792;9.012;2024-01-30T04:59:43;6.60;;;4.88;;
10116;SDS011;5098;48.792;9.012;2024-01-30T05:02:09;7.57;;;5.35;;
10116;SDS011;5098;48.792;9.012;2024-01-30T05:04:35;6.13;;;5.43;;
10116;SDS011;5098;48.792;9.012;2024-01-30T05:07:01;11.75;;;8.25;;
10116;SDS011;5098;48.792;9.012;2024-01-30T05:09:27;8.05;;;6.32;;
10116;SDS011;5098;48.792;9.012;2024-01-30T05:11:53;8.80;;;7.15;;
10116;SDS011;5098;48.792;9.012;2024-01-30T05:14:19;6.93;;;5.95;;
10116;SDS011;5098;48.792;9.012;2024-01-30T05:16:45;7.80;;;6.57;;
10116;SDS011;5098;48.792;9.012;2024-01-30T05:19:15;6.57;;;5.50;;
10116;SDS011;5098;48.792;9.012;2024-01-30T05:21:42;6.45;;;5.22;;
10116;SDS011;5098;48.792;9.012;2024-01-30T05:24:08;8.07;;;6.45;;
10116;SDS011;5098;48.792;9.012;2024-01-30T05:26:35;7.50;;;6.32;;
10116;SDS011;5098;48.792;9.012;2024-01-30T05:29:01;7.32;;;5.43;;
10116;SDS011;5098;48.792;9.012;2024-01-30T05:31:27;6.03;;;5.43;;
10116;SDS011;5098;48.792;9.012;2024-01-30T05:33:54;7.28;;;5.20;;
10116;SDS011;5098;48.792;9.012;2024-01-30T05:36:20;8.02;;;5.60;;
10116;SDS011;5098;48.792;9.012;2024-01-30T05:38:46;6.43;;;5.80;;
10116;SDS011;5098;48.792;9.012;2024-01-30T05:41:12;7.90;;;5.75;;
10116;SDS011;5098;48.792;9.012;2024-01-30T05:43:38;8.60;;;5.15;;
10116;SDS011;5098;48.792;9.012;2024-01-30T05:46:05;7.32;;;5.90;;
10116;SDS011;5098;48.792;9.012;2024-01-30T05:48:32;7.35;;;6.15;;
10116;SDS011;5098;48.792;9.012;2024-01-30T05:51:00;6.70;;;6.00;;
10116;SDS011;5098;48.792;9.012;2024-01-30T05:53:26;6.35;;;5.22;;
10116;SDS011;5098;48.792;9.012;2024-01-30T05:55:52;6.40;;;5.50;;
10116;SDS011;5098;48.792;9.012;2024-01-30T05:58:18;7.53;;;5.78;;
10116;SDS011;5098;48.792;9.012;2024-01-30T06:00:44;7.68;;;5.75;;
10116;SDS011;5098;48.792;9.012;2024-01-30T06:03:10;7.82;;;5.13;;
10116;SDS011;5098;48.792;9.012;2024-01-30T06:05:36;9.48;;;6.55;;
10116;SDS011;5098;48.792;9.012;2024-01-30T06:08:02;11.07;;;6.20;;
10116;SDS011;5098;48.792;9.012;2024-01-30T06:10:28;8.85;;;6.80;;
10116;SDS011;5098;48.792;9.012;2024-01-30T06:12:54;7.07;;;5.93;;
10116;SDS011;5098;48.792;9.012;2024-01-30T06:15:20;7.10;;;6.40;;
10116;SDS011;5098;48.792;9.012;2024-01-30T06:17:46;9.45;;;7.80;;
10116;SDS011;5098;48.792;9.012;2024-01-30T06:20:13;9.50;;;7.13;;
10116;SDS011;5098;48.792;9.012;2024-01-30T06:22:39;10.98;;;8.75;;
10116;SDS011;5098;48.792;9.012;2024-01-30T06:25:05;10.82;;;9.25;;
10116;SDS011;5098;48.792;9.012;2024-01-30T06:27:32;9.70;;;8.48;;
10116;SDS011;5098;48.792;9.012;2024-01-30T06:29:58;13.43;;;7.60;;
10116;SDS011;5098;48.792;9.012;2024-01-30T06:32:24;9.43;;;7.93;;
10116;SDS011;5098;48.792;9.012;2024-01-30T06:34:50;9.15;;;7.82;;
10116;SDS011;5098;48.792;9.012;2024-01-30T06:37:16;9.43;;;7.50;;
10116;SDS011;5098;48.792;9.012;2024-01-30T06:39:42;9.20;;;8.27;;
10116;SDS011;5098;48.792;9.012;2024-01-30T06:42:08;10.35;;;6.90;;
10116;SDS011;5098;48.792;9.012;2024-01-30T06:44:36;8.45;;;6.03;;
10116;SDS011;5098;48.792;9.012;2024-01-30T06:47:02;9.02;;;5.55;;
10116;SDS011;5098;48.792;9.012;2024-01-30T06:49:28;7.85;;;6.25;;
10116;SDS011;5098;48.792;9.012;2024-01-30T06:51:54;7.25;;;5.32;;
10116;SDS011;5098;48.792;9.012;2024-01-30T06:54:20;7.30;;;6.30;;
10116;SDS011;5098;48.792;9.012;2024-01-30T06:56:46;9.27;;;5.72;;
10116;SDS011;5098;48.792;9.012;2024-01-30T06:59:13;8.70;;;5.72;;
10116;SDS011;5098;48.792;9.012;2024-01-30T07:01:39;5.35;;;4.85;;
10116;SDS011;5098;48.792;9.012;2024-01-30T07:04:05;8.45;;;5.50;;
10116;SDS011;5098;48.792;9.012;2024-01-30T07:06:31;6.00;;;4.38;;
10116;SDS011;5098;48.792;9.012;2024-01-30T07:08:57;7.38;;;4.85;;
10116;SDS011;5098;48.792;9.012;2024-01-30T07:11:23;7.15;;;5.25;;
10116;SDS011;5098;48.792;9.012;2024-01-30T07:13:52;6.82;;;6.15;;
10116;SDS011;5098;48.792;9.012;2024-01-30T07:16:18;7.97;;;6.33;;
10116;SDS011;5098;48.792;9.012;2024-01-30T07:18:44;9.93;;;7.13;;
10116;SDS011;5098;48.792;9.012;2024-01-30T07:21:11;10.60;;;8.30;;
10116;SDS011;5098;48.792;9.012;2024-01-30T07:23:37;12.02;;;10.27;;
10116;SDS011;5098;48.792;9.012;2024-01-30T07:26:10;12.80;;;9.70;;
10116;SDS011;5098;48.792;9.012;2024-01-30T07:28:36;11.05;;;9.52;;
10116;SDS011;5098;48.792;9.012;2024-01-30T07:31:02;10.23;;;8.70;;
10116;SDS011;5098;48.792;9.012;2024-01-30T07:33:28;7.75;;;6.28;;
10116;SDS011;5098;48.792;9.012;2024-01-30T07:35:54;8.60;;;7.57;;
10116;SDS011;5098;48.792;9.012;2024-01-30T07:38:21;7.40;;;6.17;;
10116;SDS011;5098;48.792;9.012;2024-01-30T07:40:47;10.03;;;7.17;;
10116;SDS011;5098;48.792;9.012;2024-01-30T07:43:13;12.57;;;9.82;;
10116;SDS011;5098;48.792;9.012;2024-01-30T07:45:39;10.60;;;9.45;;
10116;SDS011;5098;48.792;9.012;2024-01-30T07:48:06;10.63;;;9.13;;
10116;SDS011;5098;48.792;9.012;2024-01-30T07:50:32;11.90;;;10.10;;
10116;SDS011;5098;48.792;9.012;2024-01-30T07:52:59;12.50;;;8.60;;
10116;SDS011;5098;48.792;9.012;2024-01-30T07:55:25;8.67;;;7.80;;
10116;SDS011;5098;48.792;9.012;2024-01-30T07:57:56;11.80;;;9.07;;
10116;SDS011;5098;48.792;9.012;2024-01-30T08:00:23;12.07;;;9.33;;
10116;SDS011;5098;48.792;9.012;2024-01-30T08:02:50;10.43;;;8.50;;
10116;SDS011;5098;48.792;9.012;2024-01-30T08:05:19;12.87;;;9.73;;
10116;SDS011;5098;48.792;9.012;2024-01-30T08:07:47;12.33;;;10.50;;
10116;SDS011;5098;48.792;9.012;2024-01-30T08:10:14;12.60;;;8.97;;
10116;SDS011;5098;48.792;9.012;2024-01-30T08:12:40;14.60;;;10.70;;
10116;SDS011;5098;48.792;9.012;2024-01-30T08:15:07;13.70;;;10.50;;
10116;SDS011;5098;48.792;9.012;2024-01-30T08:17:33;9.63;;;8.33;;
10116;SDS011;5098;48.792;9.012;2024-01-30T08:19:59;9.83;;;8.40;;
10116;SDS011;5098;48.792;9.012;2024-01-30T08:22:25;11.90;;;7.43;;
10116;SDS011;5098;48.792;9.012;2024-01-30T08:24:51;11.77;;;8.03;;
10116;SDS011;5098;48.792;9.012;2024-01-30T08:27:17;10.77;;;8.50;;
10116;SDS011;5098;48.792;9.012;2024-01-30T08:29:44;9.40;;;7.70;;
10116;SDS011;5098;48.792;9.012;2024-01-30T08:32:10;12.03;;;9.07;;
10116;SDS011;5098;48.792;9.012;2024-01-30T08:34:36;9.43;;;8.50;;
10116;SDS011;5098;48.792;9.012;2024-01-30T08:37:02;9.47;;;7.90;;
10116;SDS011;5098;48.792;9.012;2024-01-30T08:39:28;10.40;;;9.20;;
10116;SDS011;5098;48.792;9.012;2024-01-30T08:41:55;11.57;;;8.83;;
10116;SDS011;5098;48.792;9.012;2024-01-30T08:44:21;11.27;;;8.77;;
10116;SDS011;5098;48.792;9.012;2024-01-30T08:46:47;11.00;;;9.43;;
10116;SDS011;5098;48.792;9.012;2024-01-30T08:49:16;9.90;;;8.90;;
10116;SDS011;5098;48.792;9.012;2024-01-30T08:51:42;12.00;;;9.00;;
10116;SDS011;5098;48.792;9.012;2024-01-30T08:54:08;10.47;;;9.37;;
10116;SDS011;5098;48.792;9.012;2024-01-30T08:56:34;10.87;;;9.00;;
10116;SDS011;5098;48.792;9.012;2024-01-30T08:59:00;10.90;;;9.80;;
10116;SDS011;5098;48.792;9.012;2024-01-30T09:01:26;14.73;;;12.33;;
10116;SDS011;5098;48.792;9.012;2024-01-30T09:03:52;13.50;;;11.50;;
10116;SDS011;5098;48.792;9.012;2024-01-30T09:06:18;11.57;;;8.70;;
10116;SDS011;5098;48.792;9.012;2024-01-30T09:08:44;10.70;;;8.77;;
10116;SDS011;5098;48.792;9.012;2024-01-30T09:11:11;9.60;;;8.60;;
10116;SDS011;5098;48.792;9.012;2024-01-30T09:13:37;9.70;;;8.07;;
10116;SDS011;5098;48.792;9.012;2024-01-30T09:16:04;9.47;;;8.50;;
10116;SDS011;5098;48.792;9.012;2024-01-30T09:18:30;12.83;;;9.17;;
10116;SDS011;5098;48.792;9.012;2024-01-30T09:20:56;9.77;;;8.87;;
10116;SDS011;5098;48.792;9.012;2024-01-30T09:23:22;10.80;;;8.57;;
10116;SDS011;5098;48.792;9.012;2024-01-30T09:25:49;9.73;;;8.73;;
10116;SDS011;5098;48.792;9.012;2024-01-30T09:28:15;11.47;;;9.80;;
10116;SDS011;5098;48.792;9.012;2024-01-30T09:30:42;13.80;;;8.40;;
10116;SDS011;5098;48.792;9.012;2024-01-30T09:33:08;9.10;;;8.20;;
10116;SDS011;5098;48.792;9.012;2024-01-30T09:35:34;12.03;;;9.00;;
10116;SDS011;5098;48.792;9.012;2024-01-30T09:38:01;9.10;;;8.20;;
10116;SDS011;5098;48.792;9.012;2024-01-30T09:40:27;9.20;;;8.30;;
10116;SDS011;5098;48.792;9.012;2024-01-30T09:42:54;11.47;;;8.80;;
10116;SDS011;5098;48.792;9.012;2024-01-30T09:45:23;9.13;;;8.20;;
10116;SDS011;5098;48.792;9.012;2024-01-30T09:47:49;9.00;;;8.10;;
10116;SDS011;5098;48.792;9.012;2024-01-30T09:50:16;8.23;;;7.10;;
10116;SDS011;5098;48.792;9.012;2024-01-30T09:52:42;13.03;;;8.20;;
10116;SDS011;5098;48.792;9.012;2024-01-30T09:55:09;11.43;;;7.83;;
10116;SDS011;5098;48.792;9.012;2024-01-30T09:57:35;9.93;;;7.40;;
10116;SDS011;5098;48.792;9.012;2024-01-30T10:00:04;8.30;;;7.27;;
10116;SDS011;5098;48.792;9.012;2024-01-30T10:02:34;7.97;;;6.30;;
10116;SDS011;5098;48.792;9.012;2024-01-30T10:05:01;7.67;;;6.90;;
10116;SDS011;5098;48.792;9.012;2024-01-30T10:07:27;14.50;;;7.40;;
10116;SDS011;5098;48.792;9.012;2024-01-30T10:09:53;8.13;;;7.33;;
10116;SDS011;5098;48.792;9.012;2024-01-30T10:12:22;7.07;;;5.90;;
10116;SDS011;5098;48.792;9.012;2024-01-30T10:14:49;8.70;;;7.50;;
10116;SDS011;5098;48.792;9.012;2024-01-30T10:17:15;7.63;;;6.50;;
10116;SDS011;5098;48.792;9.012;2024-01-30T10:19:41;7.50;;;6.60;;
10116;SDS011;5098;48.792;9.012;2024-01-30T10:22:07;7.70;;;5.70;;
10116;SDS011;5098;48.792;9.012;2024-01-30T10:24:35;7.53;;;6.17;;
10116;SDS011;5098;48.792;9.012;2024-01-30T10:27:01;8.90;;;5.90;;
10116;SDS011;5098;48.792;9.012;2024-01-30T10:29:27;8.40;;;6.57;;
10116;SDS011;5098;48.792;9.012;2024-01-30T10:32:00;7.57;;;6.07;;
10116;SDS011;5098;48.792;9.012;2024-01-30T10:34:26;10.87;;;6.40;;
10116;SDS011;5098;48.792;9.012;2024-01-30T10:37:09;9.13;;;6.73;;
10116;SDS011;5098;48.792;9.012;2024-01-30T10:39:38;6.93;;;5.60;;
10116;SDS011;5098;48.792;9.012;2024-01-30T10:42:05;8.77;;;6.47;;
10116;SDS011;5098;48.792;9.012;2024-01-30T10:44:45;11.63;;;7.30;;
10116;SDS011;5098;48.792;9.012;2024-01-30T10:47:12;9.40;;;6.33;;
10116;SDS011;5098;48.792;9.012;2024-01-30T10:49:39;9.53;;;6.10;;
10116;SDS011;5098;48.792;9.012;2024-01-30T10:52:05;9.00;;;7.07;;
10116;SDS011;5098;48.792;9.012;2024-01-30T10:54:31;9.43;;;6.80;;
10116;SDS011;5098;48.792;9.012;2024-01-30T10:56:59;7.63;;;5.90;;
10116;SDS011;5098;48.792;9.012;2024-01-30T10:59:28;9.07;;;5.80;;
10116;SDS011;5098;48.792;9.012;2024-01-30T11:01:56;7.90;;;5.67;;
10116;SDS011;5098;48.792;9.012;2024-01-30T11:04:22;7.33;;;5.73;;
10116;SDS011;5098;48.792;9.012;2024-01-30T11:06:50;11.20;;;8.87;;
10116;SDS011;5098;48.792;9.012;2024-01-30T11:09:17;8.00;;;5.77;;
10116;SDS011;5098;48.792;9.012;2024-01-30T11:14:15;6.73;;;5.40;;
10116;SDS011;5098;48.792;9.012;2024-01-30T11:16:42;13.50;;;5.90;;
10116;SDS011;5098;48.792;9.012;2024-01-30T11:19:11;7.50;;;5.60;;
10116;SDS011;5098;48.792;9.012;2024-01-30T11:21:44;7.40;;;5.00;;
10116;SDS011;5098;48.792;9.012;2024-01-30T11:24:10;5.97;;;5.37;;
10116;SDS011;5098;48.792;9.012;2024-01-30T11:26:37;4.87;;;4.10;;
10116;SDS011;5098;48.792;9.012;2024-01-30T11:29:03;5.57;;;4.67;;
10116;SDS011;5098;48.792;9.012;2024-01-30T11:31:29;5.20;;;4.43;;
10116;SDS011;5098;48.792;9.012;2024-01-30T11:33:56;5.50;;;4.60;;
10116;SDS011;5098;48.792;9.012;2024-01-30T11:36:24;5.00;;;4.50;;
10116;SDS011;5098;48.792;9.012;2024-01-30T11:38:51;6.50;;;5.07;;
10116;SDS011;5098;48.792;9.012;2024-01-30T11:41:17;7.50;;;4.67;;
10116;SDS011;5098;48.792;9.012;2024-01-30T11:43:51;6.00;;;4.73;;
10116;SDS011;5098;48.792;9.012;2024-01-30T11:46:17;7.00;;;4.30;;
10116;SDS011;5098;48.792;9.012;2024-01-30T11:48:43;4.43;;;2.93;;
10116;SDS011;5098;48.792;9.012;2024-01-30T11:51:09;4.83;;;3.67;;
10116;SDS011;5098;48.792;9.012;2024-01-30T11:53:35;4.40;;;3.77;;
10116;SDS011;5098;48.792;9.012;2024-01-30T11:56:01;6.10;;;4.07;;
10116;SDS011;5098;48.792;9.012;2024-01-30T11:58:28;6.20;;;4.80;;
10116;SDS011;5098;48.792;9.012;2024-01-30T12:00:55;5.50;;;3.27;;
10116;SDS011;5098;48.792;9.012;2024-01-30T12:03:21;4.40;;;3.10;;
10116;SDS011;5098;48.792;9.012;2024-01-30T12:05:54;5.63;;;3.77;;
10116;SDS011;5098;48.792;9.012;2024-01-30T12:08:20;4.50;;;4.07;;
10116;SDS011;5098;48.792;9.012;2024-01-30T12:10:54;4.50;;;3.80;;
10116;SDS011;5098;48.792;9.012;2024-01-30T12:13:20;7.43;;;3.67;;
10116;SDS011;5098;48.792;9.012;2024-01-30T12:15:47;4.10;;;3.70;;
10116;SDS011;5098;48.792;9.012;2024-01-30T12:18:13;5.60;;;4.57;;
10116;SDS011;5098;48.792;9.012;2024-01-30T12:20:39;5.40;;;4.03;;
10116;SDS011;5098;48.792;9.012;2024-01-30T12:23:05;4.93;;;3.60;;
10116;SDS011;5098;48.792;9.012;2024-01-30T12:25:31;4.23;;;3.83;;
10116;SDS011;5098;48.792;9.012;2024-01-30T12:27:57;3.80;;;3.30;;
10116;SDS011;5098;48.792;9.012;2024-01-30T12:30:23;4.80;;;3.50;;
10116;SDS011;5098;48.792;9.012;2024-01-30T12:32:49;4.07;;;3.20;;
10116;SDS011;5098;48.792;9.012;2024-01-30T12:35:17;3.60;;;3.20;;
10116;SDS011;5098;48.792;9.012;2024-01-30T12:37:44;7.23;;;4.60;;
10116;SDS011;5098;48.792;9.012;2024-01-30T12:40:10;4.50;;;3.37;;
10116;SDS011;5098;48.792;9.012;2024-01-30T12:42:39;4.23;;;3.80;;
10116;SDS011;5098;48.792;9.012;2024-01-30T12:45:07;4.70;;;3.30;;
10116;SDS011;5098;48.792;9.012;2024-01-30T12:47:33;5.10;;;4.33;;
10116;SDS011;5098;48.792;9.012;2024-01-30T12:49:59;8.00;;;3.60;;
10116;SDS011;5098;48.792;9.012;2024-01-30T12:52:25;3.90;;;3.47;;
10116;SDS011;5098;48.792;9.012;2024-01-30T12:54:51;3.77;;;3.43;;
10116;SDS011;5098;48.792;9.012;2024-01-30T12:57:18;5.07;;;3.33;;
10116;SDS011;5098;48.792;9.012;2024-01-30T12:59:44;4.07;;;3.50;;
10116;SDS011;5098;48.792;9.012;2024-01-30T13:02:11;7.50;;;3.50;;
10116;SDS011;5098;48.792;9.012;2024-01-30T13:04:37;3.57;;;3.27;;
10116;SDS011;5098;48.792;9.012;2024-01-30T13:07:04;4.97;;;3.40;;
10116;SDS011;5098;48.792;9.012;2024-01-30T13:09:30;3.93;;;3.53;;
10116;SDS011;5098;48.792;9.012;2024-01-30T13:11:56;5.87;;;3.50;;
10116;SDS011;5098;48.792;9.012;2024-01-30T13:14:23;4.30;;;3.67;;
10116;SDS011;5098;48.792;9.012;2024-01-30T13:16:49;4.80;;;3.30;;
10116;SDS011;5098;48.792;9.012;2024-01-30T13:19:16;4.23;;;3.23;;
10116;SDS011;5098;48.792;9.012;2024-01-30T13:21:42;3.67;;;3.27;;
10116;SDS011;5098;48.792;9.012;2024-01-30T13:24:08;4.20;;;3.50;;
10116;SDS011;5098;48.792;9.012;2024-01-30T13:26:34;5.50;;;3.60;;
10116;SDS011;5098;48.792;9.012;2024-01-30T13:29:01;4.77;;;3.63;;
10116;SDS011;5098;48.792;9.012;2024-01-30T13:31:27;7.37;;;3.57;;
10116;SDS011;5098;48.792;9.012;2024-01-30T13:33:54;6.37;;;3.80;;
10116;SDS011;5098;48.792;9.012;2024-01-30T13:36:20;4.50;;;3.40;;
10116;SDS011;5098;48.792;9.012;2024-01-30T13:38:46;3.60;;;3.30;;
10116;SDS011;5098;48.792;9.012;2024-01-30T13:41:12;5.67;;;3.20;;
10116;SDS011;5098;48.792;9.012;2024-01-30T13:43:38;28.97;;;21.53;;
10116;SDS011;5098;48.792;9.012;2024-01-30T13:46:05;4.07;;;3.37;;
10116;SDS011;5098;48.792;9.012;2024-01-30T13:48:31;11.63;;;8.60;;
10116;SDS011;5098;48.792;9.012;2024-01-30T13:50:57;17.23;;;14.03;;
10116;SDS011;5098;48.792;9.012;2024-01-30T13:53:23;4.90;;;3.67;;
10116;SDS011;5098;48.792;9.012;2024-01-30T13:55:49;5.13;;;3.50;;
10116;SDS011;5098;48.792;9.012;2024-01-30T13:58:16;5.93;;;3.50;;
10116;SDS011;5098;48.792;9.012;2024-01-30T14:00:42;4.63;;;3.20;;
10116;SDS011;5098;48.792;9.012;2024-01-30T14:03:08;5.97;;;3.40;;
10116;SDS011;5098;48.792;9.012;2024-01-30T14:05:34;4.73;;;3.37;;
10116;SDS011;5098;48.792;9.012;2024-01-30T14:08:00;3.50;;;2.63;;
10116;SDS011;5098;48.792;9.012;2024-01-30T14:10:27;5.87;;;3.10;;
10116;SDS011;5098;48.792;9.012;2024-01-30T14:12:53;4.37;;;2.83;;
10116;SDS011;5098;48.792;9.012;2024-01-30T14:15:19;5.50;;;3.40;;
10116;SDS011;5098;48.792;9.012;2024-01-30T14:17:46;4.40;;;3.80;;
10116;SDS011;5098;48.792;9.012;2024-01-30T14:20:14;5.83;;;3.80;;
10116;SDS011;5098;48.792;9.012;2024-01-30T14:22:43;4.70;;;3.37;;
10116;SDS011;5098;48.792;9.012;2024-01-30T14:25:09;6.63;;;3.83;;
10116;SDS011;5098;48.792;9.012;2024-01-30T14:27:35;10.43;;;4.57;;
10116;SDS011;5098;48.792;9.012;2024-01-30T14:30:02;17.67;;;6.20;;
10116;SDS011;5098;48.792;9.012;2024-01-30T14:32:28;14.53;;;6.33;;
10116;SDS011;5098;48.792;9.012;2024-01-30T14:34:54;6.13;;;5.50;;
10116;SDS011;5098;48.792;9.012;2024-01-30T14:37:21;7.13;;;6.40;;
10116;SDS011;5098;48.792;9.012;2024-01-30T14:39:48;11.40;;;6.50;;
10116;SDS011;5098;48.792;9.012;2024-01-30T14:42:14;10.07;;;6.53;;
10116;SDS011;5098;48.792;9.012;2024-01-30T14:44:41;9.87;;;6.70;;
10116;SDS011;5098;48.792;9.012;2024-01-30T14:47:07;10.50;;;7.63;;
10116;SDS011;5098;48.792;9.012;2024-01-30T14:49:33;9.37;;;6.83;;
10116;SDS011;5098;48.792;9.012;2024-01-30T14:52:00;10.67;;;7.40;;
10116;SDS011;5098;48.792;9.012;2024-01-30T14:54:26;9.20;;;8.07;;
10116;SDS011;5098;48.792;9.012;2024-01-30T14:56:53;11.00;;;7.63;;